Date,TemperatureHighF,TemperatureAvgF,TemperatureLowF,DewpointHighF,DewpointAvgF,DewpointLowF,HumidityHigh,HumidityAvg,HumidityLow,PressureMaxIn,PressureMinIn,WindSpeedMaxMPH,WindSpeedAvgMPH,GustSpeedMaxMPH,PrecipitationSumIn
2012-12-1,42,40,38,40,36,32,95,84,78,30.56,30.47,11,3,11,0.00
2012-12-2,51,44,40,47,43,39,99,94,83,30.48,30.17,8,0,8,0.08
2012-12-3,62,52,43,52,48,42,98,89,68,30.30,30.16,12,1,12,0.01
2012-12-4,69,56,43,58,52,43,98,86,66,30.31,30.02,13,1,13,0.03
2012-12-5,58,51,34,54,39,20,91,66,46,30.31,29.96,22,5,22,0.03
2012-12-6,42,34,30,27,22,19,80,61,41,30.43,30.30,8,1,13,0.00
2012-12-7,43,36,28,42,34,24,98,92,77,30.35,30.06,3,0,3,0.16
2012-12-8,50,47,43,49,46,42,99,97,94,30.06,29.92,8,1,8,0.28
2012-12-9,50,45,42,49,44,39,99,95,86,30.29,30.05,11,1,11,0.28
2012-12-10,59,52,45,59,52,44,100,99,98,30.05,29.59,6,0,7,0.03
2012-12-11,56,46,40,56,38,30,100,75,59,30.25,29.62,14,2,15,0.06
2012-12-12,44,38,31,33,29,26,95,74,51,30.49,30.25,10,1,10,0.00
2012-12-13,47,36,29,30,28,25,92,73,44,30.52,30.38,7,1,8,0.00
2012-12-14,50,37,26,31,28,24,94,71,43,30.38,30.21,14,2,15,0.00
2012-12-15,47,38,29,38,32,26,94,80,63,30.38,30.23,6,1,7,0.00
2012-12-16,50,47,44,49,44,38,98,92,78,30.25,29.94,11,2,12,0.29
2012-12-17,45,43,41,45,43,40,99,97,94,29.96,29.65,10,2,10,0.24
2012-12-18,57,48,43,50,45,36,99,88,71,29.70,29.50,23,5,25,0.40
2012-12-19,48,43,37,36,31,29,78,64,50,30.19,29.70,23,6,23,0.00
2012-12-20,47,39,29,45,33,26,93,78,62,30.27,29.78,9,1,10,0.08
2012-12-21,58,46,36,57,40,30,96,81,66,29.78,29.14,35,7,35,0.91
2012-12-22,40,38,36,33,26,21,89,64,47,29.91,29.40,30,9,31,0.00
2012-12-23,44,38,31,29,25,19,76,60,37,30.02,29.91,18,4,18,0.00
2012-12-24,40,34,26,34,26,22,97,76,56,30.15,29.97,6,1,6,0.00
2012-12-25,41,37,32,35,32,26,98,84,71,30.31,29.95,13,2,15,0.16
2012-12-26,40,33,28,39,30,23,97,87,74,30.34,29.52,21,4,21,1.07
2012-12-27,41,37,31,40,32,21,97,83,68,29.93,29.31,28,8,29,0.47
2012-12-28,39,33,27,27,25,21,90,71,62,30.14,29.92,18,4,19,0.00
2012-12-29,34,32,26,32,29,24,97,90,81,30.12,29.56,11,1,11,0.01
2012-12-30,36,32,28,29,20,16,87,61,49,30.26,29.67,35,9,35,0.00
2012-12-31,38,34,27,29,23,16,73,65,60,30.27,29.96,19,4,20,0.00